Time;durP1;ratioP1;P1;durP2;ratioP2;P2;SDS_P1;SDS_P2;PMS_P1;PMS_P2;Temp;Humidity;BMP_temperature;BMP_pressure;BME280_temperature;BME280_humidity;BME280_pressure;Samples;Min_cycle;Max_cycle;Signal;HPM_P1;HPM_P2
2023/01/12 00:01:52;;;;;;;2.37;1.00;;;;;;;;;;5006895;28;20226;-33
2023/01/12 00:04:19;;;;;;;1.53;1.00;;;;;;;;;;5012921;28;20203;-32
2023/01/12 00:06:46;;;;;;;2.40;1.30;;;;;;;;;;5003546;28;20410;-33
2023/01/12 00:09:15;;;;;;;1.03;0.80;;;;;;;;;;5007305;28;20207;-38
2023/01/12 00:11:42;;;;;;;2.53;1.17;;;;;;;;;;5011054;28;20231;-39
2023/01/12 00:14:09;;;;;;;0.90;0.70;;;;;;;;;;5001372;28;20255;-36
2023/01/12 00:16:40;;;;;;;5.57;1.20;;;;;;;;;;5004995;28;20207;-35
2023/01/12 00:19:10;;;;;;;1.73;0.97;;;;;;;;;;5012158;28;20226;-37
2023/01/12 00:21:55;;;;;;;4.57;1.00;;;;;;;;;;5012448;28;20238;-40
2023/01/12 00:24:24;;;;;;;4.30;1.40;;;;;;;;;;4999370;28;20277;-33
2023/01/12 00:26:51;;;;;;;4.03;1.20;;;;;;;;;;5011797;28;20213;-33
2023/01/12 00:29:19;;;;;;;3.17;1.00;;;;;;;;;;5003990;28;20196;-36
2023/01/12 00:31:46;;;;;;;4.53;1.10;;;;;;;;;;5011056;28;20247;-37
2023/01/12 00:34:13;;;;;;;3.53;1.00;;;;;;;;;;5012190;28;20204;-40
2023/01/12 00:36:40;;;;;;;3.97;1.00;;;;;;;;;;5011936;28;20212;-37
2023/01/12 00:39:08;;;;;;;4.10;0.77;;;;;;;;;;5007336;28;20227;-32
2023/01/12 00:47:06;;;;;;;3.43;1.10;;;;;;;;;;5004230;28;20237;-42
2023/01/12 00:49:33;;;;;;;2.27;1.03;;;;;;;;;;5011689;28;20192;-40
2023/01/12 00:52:01;;;;;;;5.07;1.03;;;;;;;;;;4999534;28;20239;-32
2023/01/12 00:54:28;;;;;;;1.87;0.93;;;;;;;;;;5002042;28;20211;-35
2023/01/12 00:56:57;;;;;;;4.87;1.43;;;;;;;;;;5011728;28;20208;-40
2023/01/12 00:59:24;;;;;;;1.77;0.87;;;;;;;;;;5000261;28;20228;-35
2023/01/12 01:01:51;;;;;;;2.47;1.00;;;;;;;;;;5010812;28;20227;-37
2023/01/12 01:04:18;;;;;;;1.77;1.07;;;;;;;;;;5011452;28;20207;-35
2023/01/12 01:06:45;;;;;;;7.43;1.17;;;;;;;;;;5008862;28;20222;-39
2023/01/12 01:09:13;;;;;;;1.50;0.80;;;;;;;;;;5000895;28;20238;-38
2023/01/12 01:11:40;;;;;;;4.97;1.37;;;;;;;;;;5011046;28;20231;-42
2023/01/12 01:14:09;;;;;;;2.13;1.03;;;;;;;;;;4997997;28;20204;-35
2023/01/12 01:16:36;;;;;;;5.20;1.03;;;;;;;;;;5004154;28;20207;-37
2023/01/12 01:19:04;;;;;;;6.13;0.80;;;;;;;;;;5010964;28;20210;-39
2023/01/12 01:21:32;;;;;;;1.80;0.73;;;;;;;;;;5007019;28;20231;-37
2023/01/12 01:23:59;;;;;;;3.90;0.80;;;;;;;;;;4995721;28;20226;-40
2023/01/12 01:26:29;;;;;;;1.77;0.80;;;;;;;;;;4998830;28;20215;-39
2023/01/12 01:28:56;;;;;;;4.00;1.13;;;;;;;;;;5000720;28;20222;-37
2023/01/12 01:31:26;;;;;;;3.23;1.17;;;;;;;;;;5001772;28;20230;-32
2023/01/12 01:33:53;;;;;;;5.63;1.60;;;;;;;;;;5010739;28;20211;-40
2023/01/12 01:36:21;;;;;;;3.37;0.93;;;;;;;;;;5005860;28;20314;-41
2023/01/12 01:38:48;;;;;;;1.90;0.77;;;;;;;;;;5003580;28;20218;-33
2023/01/12 01:41:18;;;;;;;1.47;0.83;;;;;;;;;;5010215;28;20227;-42
2023/01/12 01:43:49;;;;;;;2.20;0.90;;;;;;;;;;5001845;28;20203;-33
2023/01/12 01:46:20;;;;;;;2.37;0.67;;;;;;;;;;5006394;28;20207;-35
2023/01/12 01:48:49;;;;;;;2.30;1.07;;;;;;;;;;5010644;28;20294;-36
2023/01/12 01:51:16;;;;;;;3.47;1.07;;;;;;;;;;5009838;28;20223;-33
2023/01/12 01:53:45;;;;;;;2.03;0.97;;;;;;;;;;4996911;28;20207;-35
2023/01/12 01:56:15;;;;;;;2.97;1.00;;;;;;;;;;5006563;28;20238;-34
2023/01/12 01:58:44;;;;;;;4.47;0.93;;;;;;;;;;5000475;28;20215;-31
2023/01/12 02:01:11;;;;;;;3.53;0.97;;;;;;;;;;4993810;28;20231;-35
2023/01/12 02:03:39;;;;;;;2.20;0.83;;;;;;;;;;5005075;28;20211;-39
2023/01/12 02:06:09;;;;;;;1.47;0.80;;;;;;;;;;5004485;28;20243;-42
2023/01/12 02:08:43;;;;;;;4.37;1.10;;;;;;;;;;5006131;28;20199;-39
2023/01/12 02:16:19;;;;;;;2.17;1.00;;;;;;;;;;4998882;28;20225;-36
2023/01/12 02:16:49;;;;;;;1.63;0.87;;;;;;;;;;5005487;28;20349;-34
2023/01/12 02:19:26;;;;;;;4.13;1.00;;;;;;;;;;5005752;28;20207;-36
2023/01/12 02:22:02;;;;;;;3.00;1.27;;;;;;;;;;4992519;28;20228;-41
2023/01/12 02:24:47;;;;;;;1.20;0.90;;;;;;;;;;4997377;28;20211;-38
2023/01/12 02:27:31;;;;;;;2.10;1.03;;;;;;;;;;5008460;28;20207;-35
2023/01/12 02:30:14;;;;;;;5.63;1.03;;;;;;;;;;5002432;28;20277;-36
2023/01/12 02:32:47;;;;;;;2.07;1.03;;;;;;;;;;5006181;28;20226;-34
2023/01/12 02:35:18;;;;;;;3.17;0.90;;;;;;;;;;5005167;28;20226;-36
2023/01/12 02:37:49;;;;;;;2.43;1.00;;;;;;;;;;4995832;28;20223;-36
2023/01/12 02:40:35;;;;;;;3.70;0.87;;;;;;;;;;5133057;27;20533;-35
2023/01/12 02:43:05;;;;;;;2.17;0.90;;;;;;;;;;5098824;28;20205;-39
2023/01/12 02:45:37;;;;;;;1.57;0.80;;;;;;;;;;5097684;28;20288;-38
2023/01/12 02:48:08;;;;;;;3.13;0.83;;;;;;;;;;5112544;28;20293;-39
2023/01/12 02:50:40;;;;;;;5.40;1.27;;;;;;;;;;5106059;27;20207;-32
2023/01/12 02:53:11;;;;;;;4.37;0.70;;;;;;;;;;5093067;28;20192;-38
2023/01/12 02:55:40;;;;;;;3.83;0.93;;;;;;;;;;5095692;28;20200;-42
2023/01/12 02:58:08;;;;;;;7.40;0.87;;;;;;;;;;5088712;28;20204;-41
2023/01/12 03:00:36;;;;;;;3.50;0.90;;;;;;;;;;5093260;28;20706;-35
2023/01/12 03:03:04;;;;;;;5.30;1.10;;;;;;;;;;5105083;28;20207;-36
2023/01/12 03:05:31;;;;;;;2.17;0.90;;;;;;;;;;5103421;28;20207;-39
2023/01/12 03:07:59;;;;;;;6.07;1.00;;;;;;;;;;5098693;28;20205;-36
2023/01/12 03:10:40;;;;;;;4.70;0.80;;;;;;;;;;5096200;28;20204;-38
2023/01/12 03:13:10;;;;;;;7.60;1.23;;;;;;;;;;5097993;27;20204;-39
2023/01/12 03:15:41;;;;;;;2.90;0.80;;;;;;;;;;5095960;28;20200;-41
2023/01/12 03:18:10;;;;;;;4.30;1.20;;;;;;;;;;5111565;28;20566;-40
2023/01/12 03:20:39;;;;;;;5.17;1.13;;;;;;;;;;5102969;28;20207;-36
2023/01/12 03:23:09;;;;;;;2.17;0.70;;;;;;;;;;5098336;28;20212;-39
2023/01/12 03:25:37;;;;;;;7.70;1.23;;;;;;;;;;5105024;28;20239;-39
2023/01/12 03:28:05;;;;;;;3.63;1.10;;;;;;;;;;5095899;27;20204;-36
2023/01/12 03:30:37;;;;;;;6.13;1.10;;;;;;;;;;5104842;28;20214;-34
2023/01/12 03:33:05;;;;;;;8.60;1.27;;;;;;;;;;5121032;27;20192;-35
2023/01/12 03:35:34;;;;;;;2.00;0.83;;;;;;;;;;5106415;28;20215;-36
2023/01/12 03:38:12;;;;;;;7.17;0.90;;;;;;;;;;5102721;28;20392;-29
2023/01/12 03:40:40;;;;;;;4.73;0.83;;;;;;;;;;5113497;28;20241;-36
2023/01/12 03:43:13;;;;;;;5.60;1.10;;;;;;;;;;5102218;28;20204;-37
2023/01/12 03:45:45;;;;;;;7.07;1.50;;;;;;;;;;5112054;28;20204;-35
2023/01/12 03:48:16;;;;;;;5.87;1.20;;;;;;;;;;5111454;28;20202;-35
2023/01/12 03:50:45;;;;;;;2.70;1.07;;;;;;;;;;5096098;28;20206;-38
2023/01/12 03:53:14;;;;;;;2.93;0.90;;;;;;;;;;5089255;28;20499;-35
2023/01/12 03:55:42;;;;;;;3.83;0.80;;;;;;;;;;5078917;28;20677;-32
2023/01/12 03:58:10;;;;;;;2.77;1.00;;;;;;;;;;5083643;28;20208;-35
2023/01/12 04:00:37;;;;;;;4.73;1.30;;;;;;;;;;5080461;28;20232;-30
2023/01/12 04:03:08;;;;;;;2.90;0.70;;;;;;;;;;5095444;28;20204;-36
2023/01/12 04:05:36;;;;;;;2.37;0.63;;;;;;;;;;5110644;28;20208;-36
2023/01/12 04:08:03;;;;;;;5.77;0.90;;;;;;;;;;5084327;28;20201;-36
2023/01/12 04:10:30;;;;;;;3.10;1.00;;;;;;;;;;5095524;28;20215;-36
2023/01/12 04:12:57;;;;;;;5.40;0.87;;;;;;;;;;5095496;28;20201;-32
2023/01/12 04:15:24;;;;;;;4.13;1.10;;;;;;;;;;5083978;28;20219;-34
2023/01/12 04:17:51;;;;;;;7.20;1.27;;;;;;;;;;5109042;28;20616;-34
2023/01/12 04:20:20;;;;;;;6.03;1.43;;;;;;;;;;5096253;28;20228;-32
2023/01/12 04:22:46;;;;;;;4.13;1.03;;;;;;;;;;5084385;28;20231;-34
2023/01/12 04:25:14;;;;;;;5.63;1.43;;;;;;;;;;5094050;28;20230;-35
2023/01/12 04:27:42;;;;;;;3.40;1.00;;;;;;;;;;5086107;28;20205;-34
2023/01/12 04:30:10;;;;;;;3.70;0.90;;;;;;;;;;5078516;28;20201;-31
2023/01/12 04:32:37;;;;;;;2.73;0.77;;;;;;;;;;5094803;28;20223;-34
2023/01/12 04:35:05;;;;;;;3.77;1.37;;;;;;;;;;5089087;28;20216;-36
2023/01/12 04:37:33;;;;;;;7.27;1.30;;;;;;;;;;5083298;28;20213;-31
2023/01/12 04:40:00;;;;;;;2.50;1.17;;;;;;;;;;5090723;28;20228;-35
2023/01/12 04:45:12;;;;;;;4.53;1.00;;;;;;;;;;5079163;28;20201;-31
2023/01/12 04:47:39;;;;;;;5.10;1.47;;;;;;;;;;5090986;28;20205;-32
2023/01/12 04:50:06;;;;;;;7.03;0.97;;;;;;;;;;5089773;28;20196;-31
2023/01/12 04:52:35;;;;;;;5.23;1.00;;;;;;;;;;5086692;28;20220;-31
2023/01/12 04:55:02;;;;;;;4.07;1.03;;;;;;;;;;5084583;28;20196;-33
2023/01/12 04:57:29;;;;;;;3.87;1.10;;;;;;;;;;5081559;28;20216;-35
2023/01/12 04:59:56;;;;;;;4.20;1.40;;;;;;;;;;5078903;28;20220;-37
2023/01/12 05:02:23;;;;;;;4.00;1.10;;;;;;;;;;5095776;28;20231;-34
2023/01/12 05:04:50;;;;;;;11.63;1.20;;;;;;;;;;5088772;28;20216;-30
2023/01/12 05:07:18;;;;;;;5.80;0.83;;;;;;;;;;5079775;28;20208;-38
2023/01/12 05:12:31;;;;;;;2.13;0.97;;;;;;;;;;5078866;28;20346;-34
2023/01/12 05:14:58;;;;;;;7.20;1.43;;;;;;;;;;5085762;28;20200;-31
2023/01/12 05:17:25;;;;;;;6.07;1.33;;;;;;;;;;5087941;28;20200;-29
2023/01/12 05:19:52;;;;;;;2.03;1.37;;;;;;;;;;5088153;28;20273;-33
2023/01/12 05:22:19;;;;;;;4.83;1.37;;;;;;;;;;5081645;28;20231;-31
2023/01/12 05:24:48;;;;;;;5.70;1.17;;;;;;;;;;5086825;28;20200;-34
2023/01/12 05:27:15;;;;;;;5.43;1.23;;;;;;;;;;5092064;28;20203;-35
2023/01/12 05:29:42;;;;;;;5.07;1.27;;;;;;;;;;5083492;28;20200;-36
2023/01/12 05:32:09;;;;;;;2.40;0.70;;;;;;;;;;5097916;28;20220;-32
2023/01/12 05:34:36;;;;;;;4.30;1.40;;;;;;;;;;5108006;28;20204;-34
2023/01/12 05:37:03;;;;;;;4.43;1.20;;;;;;;;;;5105361;28;20219;-37
2023/01/12 05:39:30;;;;;;;4.33;0.90;;;;;;;;;;5088023;28;20220;-34
2023/01/12 05:44:44;;;;;;;4.63;1.20;;;;;;;;;;5083699;28;20207;-35
2023/01/12 05:47:11;;;;;;;7.67;1.30;;;;;;;;;;5092189;28;20196;-36
2023/01/12 05:49:38;;;;;;;5.47;1.03;;;;;;;;;;5109066;28;20200;-40
2023/01/12 05:52:05;;;;;;;3.77;1.37;;;;;;;;;;5088084;28;20231;-29
2023/01/12 05:54:32;;;;;;;9.80;1.50;;;;;;;;;;5081549;28;20207;-37
2023/01/12 05:57:01;;;;;;;3.90;1.43;;;;;;;;;;5087782;28;20201;-33
2023/01/12 05:59:28;;;;;;;6.53;1.43;;;;;;;;;;5076672;28;20251;-32
2023/01/12 06:01:55;;;;;;;2.93;0.70;;;;;;;;;;5091473;28;20232;-34
2023/01/12 06:04:22;;;;;;;7.93;1.40;;;;;;;;;;5104193;28;20207;-39
2023/01/12 06:06:49;;;;;;;8.73;1.90;;;;;;;;;;5085522;28;20573;-36
2023/01/12 06:09:16;;;;;;;5.67;1.10;;;;;;;;;;5093715;28;20204;-33
2023/01/12 06:14:30;;;;;;;9.40;1.80;;;;;;;;;;5075846;28;20232;-34
2023/01/12 06:16:57;;;;;;;5.13;1.30;;;;;;;;;;5087629;28;20212;-30
2023/01/12 06:19:25;;;;;;;4.23;1.00;;;;;;;;;;5106517;28;20192;-31
2023/01/12 06:21:54;;;;;;;7.67;1.03;;;;;;;;;;5082573;28;20216;-35
2023/01/12 06:24:21;;;;;;;2.70;0.90;;;;;;;;;;5080186;28;20201;-38
2023/01/12 06:26:48;;;;;;;5.90;1.07;;;;;;;;;;5086601;28;20211;-35
2023/01/12 06:29:15;;;;;;;6.00;1.23;;;;;;;;;;5073466;28;20212;-37
2023/01/12 06:31:43;;;;;;;5.27;1.30;;;;;;;;;;5096491;28;20232;-37
2023/01/12 06:34:11;;;;;;;4.33;0.93;;;;;;;;;;5106911;28;20192;-34
2023/01/12 06:36:38;;;;;;;5.07;1.60;;;;;;;;;;5082938;28;20609;-33
2023/01/12 06:39:05;;;;;;;3.93;1.27;;;;;;;;;;5076780;28;20212;-34
2023/01/12 06:44:18;;;;;;;4.70;1.13;;;;;;;;;;5086338;28;20212;-35
2023/01/12 06:46:47;;;;;;;4.43;0.97;;;;;;;;;;5086994;28;20204;-33
2023/01/12 06:49:15;;;;;;;2.53;1.03;;;;;;;;;;5090067;28;20211;-34
2023/01/12 06:51:42;;;;;;;3.23;1.37;;;;;;;;;;5084766;28;20232;-31
2023/01/12 06:54:09;;;;;;;5.23;1.23;;;;;;;;;;5079502;28;20200;-33
2023/01/12 06:56:36;;;;;;;6.07;1.10;;;;;;;;;;5085492;28;20204;-33
2023/01/12 06:59:03;;;;;;;3.30;1.00;;;;;;;;;;5077747;28;20220;-31
2023/01/12 07:01:30;;;;;;;2.80;1.07;;;;;;;;;;5083237;28;20698;-33
2023/01/12 07:03:59;;;;;;;7.90;1.63;;;;;;;;;;5099640;28;20205;-33
2023/01/12 07:06:26;;;;;;;4.60;0.90;;;;;;;;;;5091743;28;20216;-35
2023/01/12 07:08:53;;;;;;;8.43;1.33;;;;;;;;;;5080099;28;20213;-35
2023/01/12 07:11:20;;;;;;;4.07;1.03;;;;;;;;;;5087096;28;20250;-31
2023/01/12 07:13:47;;;;;;;4.37;1.00;;;;;;;;;;5082504;28;20204;-36
2023/01/12 07:16:14;;;;;;;3.13;1.20;;;;;;;;;;5096440;28;20200;-34
2023/01/12 07:18:41;;;;;;;5.40;1.10;;;;;;;;;;5093833;28;20220;-33
2023/01/12 07:21:12;;;;;;;0.90;0.70;;;;;;;;;;5077218;28;20631;-36
2023/01/12 07:23:40;;;;;;;7.47;1.27;;;;;;;;;;5088039;28;20209;-34
2023/01/12 07:26:08;;;;;;;3.67;1.10;;;;;;;;;;5078484;28;20626;-37
2023/01/12 07:28:35;;;;;;;5.40;1.43;;;;;;;;;;5078147;28;20224;-32
2023/01/12 07:31:04;;;;;;;4.60;1.20;;;;;;;;;;5091147;28;20299;-34
2023/01/12 07:33:31;;;;;;;5.90;1.40;;;;;;;;;;5101521;28;20211;-36
2023/01/12 07:35:59;;;;;;;5.57;1.30;;;;;;;;;;5083775;28;20559;-36
2023/01/12 07:38:27;;;;;;;4.17;1.10;;;;;;;;;;5080609;28;20202;-35
2023/01/12 07:40:54;;;;;;;6.33;1.30;;;;;;;;;;5092590;28;20220;-34
2023/01/12 07:43:25;;;;;;;3.43;0.93;;;;;;;;;;5085821;28;20213;-31
2023/01/12 07:45:52;;;;;;;4.00;1.10;;;;;;;;;;5081893;28;20201;-39
2023/01/12 07:48:22;;;;;;;3.80;0.90;;;;;;;;;;5094094;28;20197;-31
2023/01/12 07:50:50;;;;;;;2.37;1.00;;;;;;;;;;5078931;28;20271;-35
2023/01/12 07:53:27;;;;;;;7.70;1.23;;;;;;;;;;5092425;28;20196;-35
2023/01/12 07:55:54;;;;;;;2.53;0.90;;;;;;;;;;5084879;28;20188;-30
2023/01/12 07:58:22;;;;;;;3.27;0.87;;;;;;;;;;5085029;28;20208;-38
2023/01/12 08:00:51;;;;;;;1.77;0.97;;;;;;;;;;5097660;28;20214;-32
2023/01/12 08:03:18;;;;;;;4.30;1.20;;;;;;;;;;5098940;28;20914;-34
2023/01/12 08:05:46;;;;;;;4.53;0.90;;;;;;;;;;5088915;28;20200;-31
2023/01/12 08:08:13;;;;;;;3.87;1.10;;;;;;;;;;5083656;28;20201;-35
2023/01/12 08:10:44;;;;;;;2.53;0.90;;;;;;;;;;5086933;28;20200;-34
2023/01/12 08:13:11;;;;;;;3.47;0.70;;;;;;;;;;5093113;28;20202;-34
2023/01/12 08:15:40;;;;;;;2.00;0.90;;;;;;;;;;5090478;28;20209;-36
2023/01/12 08:18:10;;;;;;;2.10;0.60;;;;;;;;;;5097916;28;20192;-34
2023/01/12 08:20:45;;;;;;;2.80;0.70;;;;;;;;;;5094202;27;20234;-32
2023/01/12 08:23:16;;;;;;;4.93;0.93;;;;;;;;;;5076620;28;20196;-34
2023/01/12 08:25:46;;;;;;;1.70;0.50;;;;;;;;;;5105040;28;20450;-35
2023/01/12 08:28:15;;;;;;;3.90;0.63;;;;;;;;;;5087605;28;20220;-34
2023/01/12 08:30:42;;;;;;;3.13;1.07;;;;;;;;;;5084817;28;20573;-34
2023/01/12 08:33:09;;;;;;;2.17;0.87;;;;;;;;;;5090876;28;20201;-30
2023/01/12 08:35:36;;;;;;;1.70;0.63;;;;;;;;;;5084934;28;20196;-35
2023/01/12 08:38:09;;;;;;;3.97;0.60;;;;;;;;;;5079822;28;20205;-35
2023/01/12 08:46:07;;;;;;;1.40;0.57;;;;;;;;;;5077898;28;20215;-33
2023/01/12 08:48:36;;;;;;;3.90;0.57;;;;;;;;;;5096849;28;20205;-36
2023/01/12 08:51:04;;;;;;;4.47;0.90;;;;;;;;;;5086821;28;20279;-39
2023/01/12 08:53:31;;;;;;;6.33;0.70;;;;;;;;;;5082964;28;20215;-33
2023/01/12 08:56:04;;;;;;;4.33;0.77;;;;;;;;;;5101647;28;20200;-35
2023/01/12 08:58:32;;;;;;;2.30;1.40;;;;;;;;;;5079547;28;20204;-36
2023/01/12 09:01:06;;;;;;;2.50;0.70;;;;;;;;;;5086290;28;20227;-30
2023/01/12 09:03:33;;;;;;;1.90;0.53;;;;;;;;;;5094200;28;20200;-33
2023/01/12 09:06:16;;;;;;;2.93;0.93;;;;;;;;;;5088036;28;20209;-30
2023/01/12 09:08:44;;;;;;;5.10;0.83;;;;;;;;;;5100853;28;20196;-29
2023/01/12 09:11:11;;;;;;;2.03;0.70;;;;;;;;;;5091273;28;20216;-32
2023/01/12 09:13:40;;;;;;;1.07;0.83;;;;;;;;;;5085224;28;20209;-35
2023/01/12 09:16:09;;;;;;;1.37;0.60;;;;;;;;;;5091363;28;20248;-31
2023/01/12 09:18:36;;;;;;;1.80;0.60;;;;;;;;;;5101594;28;20196;-34
2023/01/12 09:21:05;;;;;;;4.67;0.97;;;;;;;;;;5093320;28;20767;-35
2023/01/12 09:23:32;;;;;;;3.63;1.03;;;;;;;;;;5090861;28;20216;-36
2023/01/12 09:26:02;;;;;;;4.30;0.93;;;;;;;;;;5091527;28;20204;-32
2023/01/12 09:28:30;;;;;;;2.67;0.53;;;;;;;;;;5084126;28;20212;-38
2023/01/12 09:31:06;;;;;;;2.43;0.70;;;;;;;;;;5091627;28;20254;-33
2023/01/12 09:33:41;;;;;;;4.10;0.90;;;;;;;;;;5091887;28;20200;-39
2023/01/12 09:36:16;;;;;;;3.33;0.90;;;;;;;;;;5090614;28;20199;-30
2023/01/12 09:38:44;;;;;;;3.17;0.70;;;;;;;;;;5090237;28;20219;-34
2023/01/12 09:41:13;;;;;;;2.47;1.17;;;;;;;;;;5086707;28;20226;-31
2023/01/12 09:49:15;;;;;;;6.27;0.90;;;;;;;;;;5090596;28;20192;-34
2023/01/12 09:51:45;;;;;;;1.53;0.60;;;;;;;;;;5093556;28;20574;-36
2023/01/12 09:54:20;;;;;;;1.37;0.90;;;;;;;;;;5086643;28;20201;-35
2023/01/12 09:56:51;;;;;;;6.70;0.97;;;;;;;;;;5082576;28;20218;-35
2023/01/12 10:02:10;;;;;;;3.00;0.80;;;;;;;;;;5093592;28;20232;-35
2023/01/12 10:04:43;;;;;;;2.13;0.80;;;;;;;;;;5092167;28;20231;-33
2023/01/12 10:07:14;;;;;;;1.07;0.67;;;;;;;;;;5092600;28;20204;-32
2023/01/12 10:09:41;;;;;;;2.07;0.97;;;;;;;;;;5076323;28;20242;-30
2023/01/12 10:12:18;;;;;;;5.90;0.97;;;;;;;;;;5093546;28;20216;-40
2023/01/12 10:14:58;;;;;;;2.53;0.50;;;;;;;;;;5084901;28;20204;-36
2023/01/12 10:17:29;;;;;;;2.63;0.80;;;;;;;;;;5085629;28;20204;-37
2023/01/12 10:20:02;;;;;;;1.60;0.77;;;;;;;;;;5091524;28;20205;-37
2023/01/12 10:22:39;;;;;;;5.63;0.70;;;;;;;;;;5088077;28;20457;-32
2023/01/12 10:25:13;;;;;;;4.47;0.80;;;;;;;;;;5086571;28;20206;-32
2023/01/12 10:27:42;;;;;;;4.93;1.33;;;;;;;;;;5092368;28;20203;-36
2023/01/12 10:30:12;;;;;;;0.80;0.60;;;;;;;;;;5091733;28;20280;-32
2023/01/12 10:32:47;;;;;;;3.13;0.90;;;;;;;;;;5098318;28;20227;-33
2023/01/12 10:35:26;;;;;;;4.00;0.93;;;;;;;;;;5085513;28;20192;-34
2023/01/12 10:37:54;;;;;;;1.70;0.90;;;;;;;;;;5089145;28;20646;-34
2023/01/12 10:40:26;;;;;;;3.30;0.73;;;;;;;;;;5094293;28;20213;-33
2023/01/12 10:46:05;;;;;;;4.90;0.93;;;;;;;;;;5095339;28;20295;-34
2023/01/12 10:48:34;;;;;;;3.03;0.63;;;;;;;;;;5098427;28;20216;-33
2023/01/12 10:51:02;;;;;;;2.90;0.83;;;;;;;;;;5091516;28;20265;-37
2023/01/12 10:53:31;;;;;;;3.13;1.00;;;;;;;;;;5075522;28;20205;-36
2023/01/12 10:56:01;;;;;;;2.23;0.57;;;;;;;;;;5084728;28;20197;-36
2023/01/12 10:58:30;;;;;;;1.77;0.63;;;;;;;;;;5092535;28;20213;-34
2023/01/12 11:00:58;;;;;;;0.60;0.60;;;;;;;;;;5086070;28;20232;-35
2023/01/12 11:03:32;;;;;;;3.83;0.70;;;;;;;;;;5097132;28;20303;-38
2023/01/12 11:06:22;;;;;;;8.57;1.10;;;;;;;;;;5094681;28;20559;-39
2023/01/12 11:08:49;;;;;;;3.17;1.10;;;;;;;;;;5087253;28;20291;-35
2023/01/12 11:11:22;;;;;;;2.73;1.13;;;;;;;;;;5097334;28;20285;-37
2023/01/12 11:13:52;;;;;;;4.30;1.70;;;;;;;;;;5093033;28;20208;-36
2023/01/12 11:16:21;;;;;;;2.27;1.57;;;;;;;;;;5094301;28;20219;-38
2023/01/12 11:18:51;;;;;;;1.40;1.10;;;;;;;;;;5094300;28;20287;-31
2023/01/12 11:21:22;;;;;;;4.10;1.50;;;;;;;;;;5089192;28;20229;-33
2023/01/12 11:23:54;;;;;;;5.20;1.40;;;;;;;;;;5090896;28;20295;-33
2023/01/12 11:26:24;;;;;;;1.40;0.83;;;;;;;;;;5100813;28;20202;-38
2023/01/12 11:28:53;;;;;;;1.73;0.80;;;;;;;;;;5089931;28;20205;-37
2023/01/12 11:31:24;;;;;;;4.03;0.83;;;;;;;;;;5090529;28;20221;-33
2023/01/12 11:33:53;;;;;;;3.57;0.90;;;;;;;;;;5095810;28;20552;-41
2023/01/12 11:36:25;;;;;;;3.73;1.00;;;;;;;;;;5089459;28;20210;-39
2023/01/12 11:38:54;;;;;;;2.47;0.70;;;;;;;;;;5087901;28;20620;-34
2023/01/12 11:41:24;;;;;;;2.73;0.60;;;;;;;;;;5098974;28;20316;-34
2023/01/12 11:43:54;;;;;;;2.30;0.80;;;;;;;;;;5090223;28;20209;-37
2023/01/12 11:46:25;;;;;;;2.90;0.80;;;;;;;;;;5087743;28;20272;-38
2023/01/12 11:49:12;;;;;;;1.70;0.80;;;;;;;;;;5097691;28;20192;-34
2023/01/12 11:51:41;;;;;;;1.90;0.90;;;;;;;;;;5087620;28;20586;-35
2023/01/12 11:54:10;;;;;;;1.27;0.83;;;;;;;;;;5096241;28;20203;-35
2023/01/12 11:56:50;;;;;;;1.97;0.93;;;;;;;;;;5095256;28;20209;-41
2023/01/12 11:59:22;;;;;;;2.47;0.63;;;;;;;;;;5087018;28;20677;-36
2023/01/12 12:01:54;;;;;;;0.67;0.60;;;;;;;;;;5090574;28;20224;-40
2023/01/12 12:04:29;;;;;;;1.13;0.53;;;;;;;;;;5097862;28;20207;-36
2023/01/12 12:07:04;;;;;;;0.93;0.60;;;;;;;;;;5091968;28;20296;-38
2023/01/12 12:09:36;;;;;;;1.77;0.80;;;;;;;;;;5086048;28;20204;-34
2023/01/12 12:12:06;;;;;;;0.63;0.60;;;;;;;;;;5089264;28;20224;-34
2023/01/12 12:14:45;;;;;;;0.57;0.33;;;;;;;;;;5091859;28;20201;-37
2023/01/12 12:17:17;;;;;;;0.50;0.50;;;;;;;;;;5098258;28;20196;-34
2023/01/12 12:19:48;;;;;;;2.00;0.50;;;;;;;;;;5100552;28;20216;-37
2023/01/12 12:22:23;;;;;;;0.63;0.50;;;;;;;;;;5084219;28;20774;-35
2023/01/12 12:24:59;;;;;;;6.43;4.57;;;;;;;;;;5090981;28;20206;-36
2023/01/12 12:27:32;;;;;;;2.60;1.30;;;;;;;;;;5094763;28;20204;-31
2023/01/12 12:30:13;;;;;;;1.37;1.27;;;;;;;;;;5084715;28;20276;-35
2023/01/12 12:32:43;;;;;;;1.53;0.80;;;;;;;;;;5101820;28;20230;-39
2023/01/12 12:35:19;;;;;;;3.20;0.60;;;;;;;;;;5087649;28;20205;-33
2023/01/12 12:37:51;;;;;;;1.07;0.53;;;;;;;;;;5087821;28;20208;-34
2023/01/12 12:40:25;;;;;;;0.30;0.30;;;;;;;;;;5082617;28;20216;-36
2023/01/12 12:45:50;;;;;;;1.80;0.50;;;;;;;;;;5092402;28;20195;-41
2023/01/12 12:48:20;;;;;;;1.07;0.30;;;;;;;;;;5102108;28;20192;-33
2023/01/12 12:50:51;;;;;;;1.63;0.50;;;;;;;;;;5098655;28;20189;-34
2023/01/12 12:53:25;;;;;;;0.47;0.47;;;;;;;;;;5092131;28;20205;-34
2023/01/12 12:55:53;;;;;;;1.80;0.40;;;;;;;;;;5090574;28;20246;-35
2023/01/12 12:58:28;;;;;;;0.70;0.50;;;;;;;;;;5085471;28;20201;-39
2023/01/12 13:00:56;;;;;;;0.67;0.40;;;;;;;;;;5089987;28;20226;-42
2023/01/12 13:03:44;;;;;;;4.03;0.80;;;;;;;;;;5111168;28;20220;-32
2023/01/12 13:06:11;;;;;;;2.67;0.60;;;;;;;;;;5080545;28;20185;-38
2023/01/12 13:08:40;;;;;;;1.07;0.50;;;;;;;;;;5084634;28;20220;-39
2023/01/12 13:11:08;;;;;;;0.70;0.50;;;;;;;;;;5099058;28;20219;-36
2023/01/12 13:13:36;;;;;;;1.20;0.37;;;;;;;;;;5090966;28;20201;-35
2023/01/12 13:16:22;;;;;;;2.37;0.50;;;;;;;;;;5094778;28;20200;-34
2023/01/12 13:19:04;;;;;;;1.30;0.77;;;;;;;;;;5098775;27;20211;-40
2023/01/12 13:21:32;;;;;;;1.60;0.50;;;;;;;;;;5073877;28;20225;-31
2023/01/12 13:24:26;;;;;;;1.03;0.30;;;;;;;;;;5088559;28;20214;-32
2023/01/12 13:26:57;;;;;;;2.93;0.50;;;;;;;;;;5067051;28;20192;-32
2023/01/12 13:29:38;;;;;;;1.00;0.50;;;;;;;;;;5086778;28;20293;-40
2023/01/12 13:32:24;;;;;;;0.53;0.40;;;;;;;;;;5079880;28;20217;-37
2023/01/12 13:34:53;;;;;;;2.03;0.40;;;;;;;;;;5090758;28;20709;-35
2023/01/12 13:37:24;;;;;;;1.83;0.50;;;;;;;;;;5091816;28;20280;-35
2023/01/12 13:39:53;;;;;;;2.77;0.83;;;;;;;;;;5085612;28;20291;-37
2023/01/12 13:45:11;;;;;;;0.20;0.13;;;;;;;;;;5080209;28;20223;-34
2023/01/12 13:47:38;;;;;;;2.53;0.87;;;;;;;;;;5095052;28;20228;-42
2023/01/12 13:50:07;;;;;;;1.70;0.20;;;;;;;;;;5092644;28;20201;-35
2023/01/12 13:52:36;;;;;;;2.23;0.30;;;;;;;;;;5080513;28;20221;-42
2023/01/12 13:55:04;;;;;;;0.43;0.43;;;;;;;;;;5090836;28;20201;-38
2023/01/12 13:57:32;;;;;;;0.47;0.30;;;;;;;;;;5091754;28;20192;-38
2023/01/12 14:00:03;;;;;;;0.17;0.10;;;;;;;;;;5083792;28;20210;-37
2023/01/12 14:02:37;;;;;;;1.60;0.47;;;;;;;;;;5099925;28;20220;-34
2023/01/12 14:05:15;;;;;;;0.63;0.30;;;;;;;;;;5106889;27;20228;-40
2023/01/12 14:07:52;;;;;;;2.07;0.73;;;;;;;;;;5077856;28;20204;-36
2023/01/12 14:10:35;;;;;;;0.43;0.30;;;;;;;;;;5105519;28;20199;-37
2023/01/12 14:13:32;;;;;;;0.30;0.30;;;;;;;;;;5074197;28;20196;-30
2023/01/12 14:18:46;;;;;;;0.77;0.37;;;;;;;;;;5113875;28;20256;-37
2023/01/12 14:21:21;;;;;;;0.30;0.20;;;;;;;;;;5114928;28;20228;-39
2023/01/12 14:23:48;;;;;;;0.43;0.20;;;;;;;;;;5104063;28;20212;-37
2023/01/12 14:26:22;;;;;;;1.50;0.53;;;;;;;;;;5101341;28;20200;-40
2023/01/12 14:28:50;;;;;;;2.70;2.03;;;;;;;;;;5093050;28;20204;-38
2023/01/12 14:31:22;;;;;;;2.70;0.80;;;;;;;;;;5084409;28;20227;-35
2023/01/12 14:33:50;;;;;;;1.10;0.20;;;;;;;;;;5081047;28;20189;-41
2023/01/12 14:36:19;;;;;;;0.50;0.50;;;;;;;;;;5101385;28;20203;-34
2023/01/12 14:38:47;;;;;;;1.03;0.90;;;;;;;;;;5083763;28;20275;-36
2023/01/12 14:46:49;;;;;;;0.43;0.40;;;;;;;;;;5079589;28;20673;-39
2023/01/12 14:49:19;;;;;;;1.03;0.53;;;;;;;;;;5086809;28;20695;-35
2023/01/12 14:51:52;;;;;;;1.60;0.20;;;;;;;;;;5090885;28;20520;-38
2023/01/12 14:54:20;;;;;;;1.90;0.20;;;;;;;;;;5088096;28;20197;-37
2023/01/12 14:56:55;;;;;;;1.13;0.37;;;;;;;;;;5084767;28;21102;-36
2023/01/12 14:59:24;;;;;;;2.13;0.70;;;;;;;;;;5081016;28;20204;-38
2023/01/12 15:01:53;;;;;;;0.27;0.23;;;;;;;;;;5091291;28;20217;-37
2023/01/12 15:04:21;;;;;;;0.23;0.23;;;;;;;;;;5091394;28;20214;-37
2023/01/12 15:06:59;;;;;;;1.63;0.40;;;;;;;;;;5088714;28;20205;-40
2023/01/12 15:09:29;;;;;;;1.60;0.80;;;;;;;;;;5086477;28;20876;-38
2023/01/12 15:11:56;;;;;;;1.33;0.50;;;;;;;;;;5091813;28;20220;-40
2023/01/12 15:14:25;;;;;;;1.17;0.47;;;;;;;;;;5080690;28;20202;-33
2023/01/12 15:28:08;;;;;;;0.70;0.47;;;;;;;;;;5085771;28;20204;-35
2023/01/12 15:30:37;;;;;;;0.47;0.47;;;;;;;;;;5087983;28;20196;-39
2023/01/12 15:33:06;;;;;;;0.40;0.40;;;;;;;;;;5092084;28;20204;-38
2023/01/12 15:35:34;;;;;;;2.40;0.80;;;;;;;;;;5085116;28;20212;-34
2023/01/12 15:38:01;;;;;;;4.43;1.00;;;;;;;;;;5082233;28;20201;-37
2023/01/12 15:40:29;;;;;;;1.80;0.43;;;;;;;;;;5089462;28;20219;-37
2023/01/12 15:42:57;;;;;;;0.80;0.50;;;;;;;;;;5091961;28;20320;-37
2023/01/12 15:45:30;;;;;;;0.90;0.47;;;;;;;;;;5085464;28;20209;-34
2023/01/12 15:47:57;;;;;;;0.87;0.60;;;;;;;;;;5096695;28;20201;-38
2023/01/12 15:50:25;;;;;;;0.90;0.60;;;;;;;;;;5100322;28;20200;-29
2023/01/12 15:52:52;;;;;;;3.13;0.80;;;;;;;;;;5089801;28;20223;-34
2023/01/12 15:55:20;;;;;;;1.23;0.30;;;;;;;;;;5102114;28;20208;-39
2023/01/12 15:57:49;;;;;;;0.40;0.40;;;;;;;;;;5097430;28;20213;-33
2023/01/12 16:00:17;;;;;;;1.40;0.60;;;;;;;;;;5091224;28;20232;-40
2023/01/12 16:02:46;;;;;;;1.80;0.60;;;;;;;;;;5105542;28;20231;-35
2023/01/12 16:05:14;;;;;;;0.97;0.63;;;;;;;;;;5106431;28;20197;-36